Time;durP1;ratioP1;P1;durP2;ratioP2;P2;SDS_P1;SDS_P2;PMS_P1;PMS_P2;Temp;Humidity;BMP_temperature;BMP_pressure;BME280_temperature;BME280_humidity;BME280_pressure;Samples;Min_cycle;Max_cycle;Signal;HPM_P1;HPM_P2
2023/10/01 00:04:59;;;;;;;15.30;6.70;;;;;;;7.38;78.96;100636.26;218616;1256;140304;-78
2023/10/01 00:10:13;;;;;;;16.20;6.60;;;;;;;7.39;79.12;100637.70;218780;1257;142116;-78
2023/10/01 00:15:22;;;;;;;8.10;4.60;;;;;;;7.41;79.30;100634.48;218134;1259;140384;-74
2023/10/01 00:20:29;;;;;;;7.80;5.70;;;;;;;7.39;79.36;100632.27;218859;1257;140904;-78
2023/10/01 00:25:35;;;;;;;7.50;4.70;;;;;;;7.33;78.97;100619.73;218001;1257;139954;-74
2023/10/01 00:30:41;;;;;;;7.00;4.20;;;;;;;7.26;78.78;100621.08;218141;1256;140761;-77
2023/10/01 00:35:47;;;;;;;12.50;6.50;;;;;;;7.20;79.62;100617.31;218129;1256;141189;-75
2023/10/01 00:40:53;;;;;;;19.00;7.50;;;;;;;7.15;79.45;100615.67;218774;1257;139341;-76
2023/10/01 00:45:59;;;;;;;9.30;7.00;;;;;;;7.12;79.90;100605.93;218464;1257;143164;-75
2023/10/01 00:51:05;;;;;;;15.30;5.20;;;;;;;7.11;79.75;100602.58;217890;1259;139535;-75
2023/10/01 00:56:12;;;;;;;15.20;7.30;;;;;;;7.09;80.02;100604.15;218553;1259;140453;-75
2023/10/01 01:01:19;;;;;;;5.40;4.80;;;;;;;7.06;79.98;100599.88;218356;1256;141187;-80
2023/10/01 01:06:24;;;;;;;10.40;5.30;;;;;;;7.01;80.17;100593.29;218844;1257;141362;-79
2023/10/01 01:11:29;;;;;;;11.00;5.80;;;;;;;6.98;80.47;100597.71;218618;1255;140539;-79
2023/10/01 01:16:35;;;;;;;12.80;6.80;;;;;;;6.97;80.17;100595.05;218819;1256;140512;-77
2023/10/01 01:21:42;;;;;;;9.60;6.30;;;;;;;6.95;80.57;100590.34;218137;1257;140326;-74
2023/10/01 01:26:51;;;;;;;11.50;6.50;;;;;;;6.96;80.41;100590.63;218716;1256;140464;-79
2023/10/01 01:32:21;;;;;;;9.20;6.50;;;;;;;6.95;80.52;100594.13;219222;1257;141436;-78
2023/10/01 01:38:10;;;;;;;6.50;4.90;;;;;;;6.91;80.16;100577.82;219453;1257;141267;-75
2023/10/01 01:42:49;;;;;;;13.00;6.20;;;;;;;6.86;80.49;100574.71;219665;1257;140982;-79
2023/10/01 01:47:55;;;;;;;11.10;6.30;;;;;;;6.88;80.85;100587.57;219999;1257;142474;-78
2023/10/01 01:53:04;;;;;;;7.70;5.90;;;;;;;6.90;80.72;100595.39;218211;1257;139970;-76
2023/10/01 01:58:09;;;;;;;8.40;5.00;;;;;;;6.91;80.69;100593.33;219222;1257;139564;-80
2023/10/01 02:03:17;;;;;;;7.60;5.00;;;;;;;6.92;81.11;100594.76;219683;1257;141694;-75
2023/10/01 02:09:12;;;;;;;12.90;6.60;;;;;;;6.96;81.47;100587.29;218672;1257;139887;-81
2023/10/01 02:13:54;;;;;;;9.00;5.20;;;;;;;7.01;81.59;100586.04;218725;1255;140736;-79
2023/10/01 02:19:21;;;;;;;7.60;4.60;;;;;;;7.03;81.52;100593.22;219070;1256;140629;-80
2023/10/01 02:25:14;;;;;;;12.90;4.30;;;;;;;7.02;81.22;100593.78;218679;1257;140521;-78
2023/10/01 02:35:35;;;;;;;16.30;5.70;;;;;;;6.86;81.09;100588.98;218087;1259;139663;-79
2023/10/01 02:40:40;;;;;;;9.60;4.70;;;;;;;6.88;81.68;100595.36;218458;1259;140519;-70
2023/10/01 02:45:51;;;;;;;6.40;5.30;;;;;;;6.89;81.72;100598.55;218179;1259;139839;-69
2023/10/01 02:51:14;;;;;;;5.20;4.30;;;;;;;6.86;81.73;100579.98;218462;1259;140380;-69
2023/10/01 02:56:18;;;;;;;6.00;5.40;;;;;;;6.84;82.03;100580.93;218745;1257;140449;-70
2023/10/01 03:01:29;;;;;;;8.40;4.50;;;;;;;6.88;81.81;100581.95;218302;1259;139818;-69
2023/10/01 03:06:36;;;;;;;6.80;5.10;;;;;;;6.90;82.34;100574.99;218254;1256;139497;-73
2023/10/01 03:11:44;;;;;;;10.30;6.70;;;;;;;6.93;82.44;100579.31;219147;1259;140369;-78
2023/10/01 03:16:54;;;;;;;6.30;5.40;;;;;;;6.97;82.41;100581.96;218739;1259;140409;-79
2023/10/01 03:27:46;;;;;;;13.70;5.40;;;;;;;7.02;82.92;100568.42;218750;1255;248505;-81
2023/10/01 03:32:52;;;;;;;12.80;6.20;;;;;;;7.09;83.24;100566.98;219042;1256;139795;-81
2023/10/01 03:38:09;;;;;;;8.50;4.70;;;;;;;7.18;83.42;100576.94;219276;1256;140782;-74
2023/10/01 03:43:18;;;;;;;8.40;4.70;;;;;;;7.23;83.14;100578.09;219485;1259;141246;-82
2023/10/01 03:48:23;;;;;;;15.60;6.10;;;;;;;7.29;83.71;100575.13;220251;1257;139800;-82
2023/10/01 03:53:32;;;;;;;10.90;4.60;;;;;;;7.35;83.39;100568.77;218138;1257;140248;-81
2023/10/01 03:58:37;;;;;;;9.50;4.80;;;;;;;7.40;83.63;100583.86;218230;1257;139770;-80
2023/10/01 04:03:43;;;;;;;10.00;6.00;;;;;;;7.44;83.82;100589.70;218286;1257;139746;-81
2023/10/01 04:08:48;;;;;;;9.20;5.40;;;;;;;7.50;83.92;100588.36;219661;1254;141336;-80
2023/10/01 04:14:07;;;;;;;5.90;4.10;;;;;;;7.59;84.52;100582.14;218093;1259;139754;-81
2023/10/01 04:19:20;;;;;;;7.60;4.70;;;;;;;7.66;84.64;100575.91;218898;1259;140386;-81
2023/10/01 04:24:27;;;;;;;4.90;4.30;;;;;;;7.69;84.38;100570.75;218035;1259;140459;-78
2023/10/01 04:29:44;;;;;;;11.00;7.20;;;;;;;7.71;84.52;100574.16;218278;1257;139778;-80
2023/10/01 04:34:53;;;;;;;13.60;6.50;;;;;;;7.76;84.62;100573.13;218355;1259;139960;-80
2023/10/01 04:40:02;;;;;;;6.10;4.30;;;;;;;7.82;84.81;100575.78;218117;1257;139696;-80
2023/10/01 04:45:22;;;;;;;7.60;4.30;;;;;;;7.87;85.03;100581.94;218441;1259;140031;-79
2023/10/01 04:50:29;;;;;;;5.40;4.20;;;;;;;7.93;85.36;100580.55;217978;1259;141711;-80
2023/10/01 04:55:41;;;;;;;13.40;5.20;;;;;;;8.02;85.77;100568.96;218045;1258;141113;-78
2023/10/01 05:00:49;;;;;;;7.00;5.10;;;;;;;8.12;86.01;100572.48;219195;1259;139926;-81
2023/10/01 05:05:54;;;;;;;9.90;3.40;;;;;;;8.18;86.05;100565.37;219595;1257;139839;-80
2023/10/01 05:11:02;;;;;;;7.20;4.00;;;;;;;8.26;86.07;100556.06;218930;1258;139614;-80
2023/10/01 05:16:12;;;;;;;6.10;4.10;;;;;;;8.40;86.16;100558.02;218803;1257;139910;-80
2023/10/01 05:21:21;;;;;;;30.50;6.00;;;;;;;8.56;86.57;100560.34;220115;1259;140588;-80
2023/10/01 05:26:35;;;;;;;5.80;3.70;;;;;;;8.73;86.55;100568.55;218290;1258;140611;-78
2023/10/01 05:31:41;;;;;;;9.30;4.80;;;;;;;8.87;86.65;100571.52;219746;1259;140804;-77
2023/10/01 05:36:49;;;;;;;6.40;4.70;;;;;;;9.00;86.73;100575.13;219860;1258;139659;-80
2023/10/01 05:41:57;;;;;;;8.20;4.90;;;;;;;9.16;86.51;100580.38;218927;1259;140430;-79
2023/10/01 05:47:04;;;;;;;3.50;3.20;;;;;;;9.30;86.48;100580.08;219127;1256;139804;-78
2023/10/01 05:52:13;;;;;;;11.10;4.30;;;;;;;9.43;86.57;100574.92;218677;1257;140206;-78
2023/10/01 05:57:22;;;;;;;10.10;4.10;;;;;;;9.57;86.71;100575.70;219214;1256;140833;-78
2023/10/01 06:02:47;;;;;;;6.50;4.80;;;;;;;9.66;86.42;100582.05;218579;1257;141152;-78
2023/10/01 06:07:55;;;;;;;7.40;3.00;;;;;;;9.78;86.49;100588.41;218062;1258;139391;-78
2023/10/01 06:13:01;;;;;;;;;;;;;;;9.91;86.55;100595.90;218899;1257;140759;-79
2023/10/01 06:18:06;;;;;;;7.30;3.90;;;;;;;10.02;86.30;100595.27;218659;1257;130894;-79
2023/10/01 06:23:14;;;;;;;8.40;3.70;;;;;;;10.13;86.28;100600.08;217889;1259;140357;-75
2023/10/01 06:28:20;;;;;;;5.20;3.50;;;;;;;10.23;86.30;100603.16;218264;1259;141304;-78
2023/10/01 06:33:35;;;;;;;10.20;3.50;;;;;;;10.33;86.16;100609.61;217959;1257;139955;-78
2023/10/01 06:38:45;;;;;;;12.60;6.10;;;;;;;10.43;85.84;100618.23;219079;1259;141156;-78
2023/10/01 06:44:01;;;;;;;11.90;4.60;;;;;;;10.57;85.76;100617.33;219115;1260;141110;-78
2023/10/01 06:49:11;;;;;;;7.10;3.80;;;;;;;10.72;85.71;100611.60;218622;1260;142337;-78
2023/10/01 06:54:24;;;;;;;6.60;3.50;;;;;;;10.83;85.46;100610.69;219061;1259;141112;-78
2023/10/01 06:59:33;;;;;;;8.70;3.30;;;;;;;10.91;85.29;100613.23;219117;1259;142599;-78
2023/10/01 07:04:42;;;;;;;4.90;3.80;;;;;;;11.09;85.28;100614.41;219257;1260;142231;-78
2023/10/01 07:09:53;;;;;;;6.60;3.30;;;;;;;11.32;85.30;100609.37;220582;1257;141919;-80
2023/10/01 07:15:03;;;;;;;4.30;2.90;;;;;;;11.57;85.31;100611.55;220703;1259;140650;-79
2023/10/01 07:20:27;;;;;;;10.90;4.20;;;;;;;11.79;84.68;100611.68;219764;1257;141736;-79
2023/10/01 07:25:42;;;;;;;8.80;3.40;;;;;;;12.03;83.93;100608.91;219265;1255;140695;-78
2023/10/01 07:30:56;;;;;;;5.90;3.80;;;;;;;12.32;83.96;100613.30;218874;1256;141010;-79
2023/10/01 07:36:10;;;;;;;13.90;4.90;;;;;;;12.64;83.71;100609.80;219168;1259;142174;-78
2023/10/01 07:41:20;;;;;;;6.80;3.50;;;;;;;12.84;83.29;100611.41;218486;1258;140690;-79
2023/10/01 07:46:28;;;;;;;;;;;;;;;12.97;82.72;100622.91;219422;1258;140389;-79
2023/10/01 07:51:38;;;;;;;6.00;3.20;;;;;;;13.12;82.72;100625.86;219288;1257;126945;-79
2023/10/01 07:56:51;;;;;;;8.10;3.60;;;;;;;13.28;82.48;100615.33;218648;1258;140077;-78
2023/10/01 08:02:08;;;;;;;18.00;4.00;;;;;;;13.31;82.01;100611.29;218165;1257;140580;-78
2023/10/01 08:07:15;;;;;;;4.20;3.00;;;;;;;13.43;81.87;100609.61;218015;1260;141580;-78
2023/10/01 08:18:26;;;;;;;4.70;3.20;;;;;;;13.68;81.41;100605.63;217531;1257;142580;-77
2023/10/01 08:23:45;;;;;;;5.00;2.90;;;;;;;13.78;81.26;100603.31;218258;1260;140180;-79
2023/10/01 08:29:01;;;;;;;13.10;4.30;;;;;;;13.84;80.72;100607.05;219413;1257;139700;-78
2023/10/01 08:34:23;;;;;;;7.70;3.30;;;;;;;13.98;80.87;100596.48;218325;1257;141465;-78
2023/10/01 08:39:48;;;;;;;6.90;2.80;;;;;;;14.30;81.04;100594.19;218325;1257;140627;-77
2023/10/01 08:45:11;;;;;;;5.10;2.70;;;;;;;14.63;80.32;100596.40;219249;1256;140709;-78
2023/10/01 08:50:28;;;;;;;3.30;2.20;;;;;;;14.84;79.83;100590.71;218201;1257;978525;-77
2023/10/01 09:01:13;;;;;;;4.60;2.90;;;;;;;15.41;79.08;100594.54;220009;1255;140471;-79
2023/10/01 09:06:27;;;;;;;3.70;2.40;;;;;;;15.61;78.28;100597.02;219749;1258;140103;-76
2023/10/01 09:11:50;;;;;;;5.40;2.80;;;;;;;15.72;77.82;100601.80;220418;1257;141168;-78
2023/10/01 09:17:00;;;;;;;5.30;3.00;;;;;;;15.85;77.15;100600.64;219639;1256;141214;-77
2023/10/01 09:22:15;;;;;;;7.50;2.30;;;;;;;16.02;76.74;100600.27;218611;1257;140456;-77
2023/10/01 09:27:28;;;;;;;4.70;2.60;;;;;;;16.19;76.31;100606.08;218571;1257;140300;-76
2023/10/01 09:32:52;;;;;;;3.80;2.00;;;;;;;16.41;76.29;100603.45;218458;1257;141150;-77
2023/10/01 09:38:18;;;;;;;9.30;3.10;;;;;;;16.62;75.99;100607.60;218919;1257;141270;-76
2023/10/01 09:43:33;;;;;;;5.70;2.80;;;;;;;16.76;74.97;100611.48;218649;1256;139784;-76
2023/10/01 09:48:48;;;;;;;4.50;2.60;;;;;;;16.85;74.57;100607.90;218107;1257;140728;-74
2023/10/01 09:53:56;;;;;;;5.20;2.50;;;;;;;17.04;74.31;100605.23;218253;1256;141276;-75
2023/10/01 09:59:07;;;;;;;5.40;2.30;;;;;;;17.25;73.92;100604.27;217867;1258;140134;-74
2023/10/01 10:04:20;;;;;;;5.50;2.00;;;;;;;17.49;73.47;100603.15;219399;1257;141339;-76
2023/10/01 10:09:29;;;;;;;3.60;1.90;;;;;;;17.68;72.66;100593.33;217942;1256;142661;-76
2023/10/01 10:14:36;;;;;;;6.20;2.50;;;;;;;17.82;71.98;100596.59;219008;1257;140725;-76
2023/10/01 10:20:16;;;;;;;5.20;2.20;;;;;;;18.12;71.74;100597.11;217975;1257;139782;-76
2023/10/01 10:25:43;;;;;;;4.10;2.40;;;;;;;18.33;70.68;100593.27;218675;1256;244115;-74
2023/10/01 10:31:37;;;;;;;7.20;2.90;;;;;;;18.43;70.14;100594.58;218448;1256;139998;-76
2023/10/01 10:36:50;;;;;;;6.80;2.50;;;;;;;18.63;69.63;100604.29;218639;1258;140029;-75
2023/10/01 10:42:29;;;;;;;7.00;3.20;;;;;;;18.62;68.66;100604.71;218167;1257;141109;-76
2023/10/01 10:47:58;;;;;;;12.70;2.90;;;;;;;18.65;68.44;100606.39;218979;1256;140440;-75
2023/10/01 10:53:18;;;;;;;4.30;2.50;;;;;;;18.65;67.78;100608.38;219650;1256;140792;-77
2023/10/01 10:58:28;;;;;;;11.50;2.60;;;;;;;18.83;67.75;100605.13;219454;1255;140420;-77
2023/10/01 11:03:41;;;;;;;4.40;1.80;;;;;;;19.23;67.63;100599.58;219256;1257;141316;-77
2023/10/01 11:08:52;;;;;;;10.80;2.80;;;;;;;19.56;66.32;100595.18;218524;1257;141303;-77
2023/10/01 11:14:01;;;;;;;3.70;1.80;;;;;;;19.77;65.49;100587.86;218288;1256;141311;-77
2023/10/01 11:19:20;;;;;;;8.10;2.90;;;;;;;19.98;64.81;100579.88;218488;1258;140192;-76
2023/10/01 11:24:39;;;;;;;4.20;1.40;;;;;;;20.11;64.19;100568.85;217953;1260;139101;-76
2023/10/01 11:30:27;;;;;;;3.20;1.90;;;;;;;20.22;63.74;100566.72;218591;1256;139355;-76
2023/10/01 11:35:36;;;;;;;3.20;1.90;;;;;;;20.21;62.66;100559.46;217907;1259;140670;-76
2023/10/01 11:46:29;;;;;;;6.10;2.00;;;;;;;20.34;61.50;100543.45;218343;1259;139757;-76
2023/10/01 11:51:54;;;;;;;6.90;2.50;;;;;;;20.39;60.97;100545.55;218361;1257;139236;-76
2023/10/01 11:57:16;;;;;;;2.50;1.60;;;;;;;20.31;60.99;100539.66;218132;1259;139748;-76
2023/10/01 12:02:25;;;;;;;5.70;1.90;;;;;;;20.06;60.41;100534.59;218108;1257;140197;-77
2023/10/01 12:07:43;;;;;;;5.20;2.10;;;;;;;19.61;60.07;100534.22;218575;1259;139303;-79
2023/10/01 12:12:50;;;;;;;3.80;1.90;;;;;;;19.28;60.50;100531.94;218322;1259;139636;-78
2023/10/01 12:18:06;;;;;;;;;;;;;;;19.12;60.71;100527.64;218854;1257;140475;-77
2023/10/01 12:23:15;;;;;;;2.50;1.80;;;;;;;19.15;61.17;100529.11;218469;1256;125433;-78
2023/10/01 12:28:27;;;;;;;3.80;2.10;;;;;;;19.22;61.14;100527.36;218770;1256;140261;-77
2023/10/01 12:33:43;;;;;;;5.40;2.70;;;;;;;19.22;60.96;100519.35;218720;1259;141168;-78
2023/10/01 12:39:16;;;;;;;2.80;2.00;;;;;;;19.12;60.96;100516.55;219359;1255;140287;-80
2023/10/01 12:44:28;;;;;;;5.20;2.70;;;;;;;19.24;60.82;100508.17;218965;1255;139620;-70
2023/10/01 12:49:37;;;;;;;9.00;2.00;;;;;;;19.45;60.98;100506.55;219089;1259;140537;-72
2023/10/01 12:54:58;;;;;;;5.80;2.20;;;;;;;19.62;60.65;100505.60;218032;1256;140369;-76
2023/10/01 13:00:23;;;;;;;7.60;2.00;;;;;;;19.71;60.38;100515.64;218634;1255;139584;-77
2023/10/01 13:05:44;;;;;;;13.10;2.40;;;;;;;19.58;59.94;100521.09;218458;1259;139521;-83
2023/10/01 13:11:05;;;;;;;7.20;2.60;;;;;;;19.44;59.99;100523.00;218290;1257;152159;-71
2023/10/01 13:16:28;;;;;;;9.10;2.60;;;;;;;19.34;59.66;100515.82;219582;1255;222384;-72
2023/10/01 13:21:41;;;;;;;3.70;1.60;;;;;;;19.47;59.67;100507.47;218108;1256;139388;-70
2023/10/01 13:27:16;;;;;;;5.50;2.70;;;;;;;19.56;59.59;100501.30;218947;1257;139312;-73
2023/10/01 13:32:32;;;;;;;5.80;2.00;;;;;;;19.56;59.16;100495.35;218354;1255;139211;-72
2023/10/01 13:37:47;;;;;;;;;;;;;;;19.62;59.02;100491.91;218494;1259;139046;-70
2023/10/01 14:10:15;;;;;;;5.20;2.50;;;;;;;19.15;58.80;100473.38;218131;1257;140191;-78
2023/10/01 14:15:27;;;;;;;9.30;2.60;;;;;;;19.16;58.90;100473.59;218641;1256;139578;-79
2023/10/01 14:20:38;;;;;;;4.00;2.10;;;;;;;19.12;58.82;100477.05;218357;1257;140052;-73
2023/10/01 14:31:11;;;;;;;8.60;2.60;;;;;;;18.94;58.96;100471.40;218623;1257;139247;-78
2023/10/01 14:36:20;;;;;;;14.40;8.70;;;;;;;18.72;58.58;100472.33;218974;1256;140090;-81
2023/10/01 14:52:51;;;;;;;6.80;3.10;;;;;;;18.30;59.02;100472.55;214198;1298;682599;-74
2023/10/01 14:57:56;;;;;;;4.20;2.60;;;;;;;18.17;59.31;100468.75;216813;1269;137788;-72
2023/10/01 15:02:59;;;;;;;8.20;3.10;;;;;;;18.05;59.43;100466.18;216158;1269;652435;-71
2023/10/01 15:08:02;;;;;;;6.10;2.70;;;;;;;17.96;59.85;100456.94;216811;1272;139830;-74
2023/10/01 15:13:11;;;;;;;5.20;1.90;;;;;;;17.88;60.19;100460.14;217293;1272;138479;-73
2023/10/01 15:18:33;;;;;;;5.80;2.10;;;;;;;17.78;60.76;100463.28;217439;1272;139432;-73
2023/10/01 15:23:44;;;;;;;4.10;2.10;;;;;;;17.74;60.96;100466.29;216793;1269;139487;-71
2023/10/01 15:28:50;;;;;;;6.00;1.70;;;;;;;17.64;61.11;100465.82;216904;1269;138505;-74
2023/10/01 15:34:01;;;;;;;2.90;2.10;;;;;;;17.55;61.56;100464.90;216460;1271;138653;-72
2023/10/01 15:44:56;;;;;;;32.30;4.60;;;;;;;17.32;62.03;100472.88;218015;1264;138570;-71
2023/10/01 15:50:09;;;;;;;4.50;3.10;;;;;;;17.21;62.61;100473.39;217552;1266;159019;-70
2023/10/01 16:00:25;;;;;;;6.80;3.30;;;;;;;16.99;63.44;100466.69;214565;1294;683513;-72
2023/10/01 16:05:46;;;;;;;10.50;3.90;;;;;;;16.86;63.89;100462.71;216416;1269;139457;-78
2023/10/01 16:11:01;;;;;;;16.60;3.90;;;;;;;16.74;64.75;100459.19;215428;1273;907847;-70
2023/10/01 16:16:15;;;;;;;10.40;2.60;;;;;;;16.60;65.23;100464.59;217013;1268;151132;-69
2023/10/01 16:21:24;;;;;;;5.20;3.10;;;;;;;16.44;65.81;100467.58;216800;1271;140196;-75
2023/10/01 16:26:45;;;;;;;20.10;5.20;;;;;;;16.31;66.19;100472.44;216767;1272;139700;-75
2023/10/01 16:31:48;;;;;;;10.40;2.50;;;;;;;16.17;66.54;100471.67;216280;1270;139743;-71
2023/10/01 16:36:52;;;;;;;4.50;2.40;;;;;;;16.06;66.87;100474.72;216600;1268;138972;-76
2023/10/01 16:41:59;;;;;;;9.80;3.40;;;;;;;15.95;67.26;100478.41;216564;1270;141073;-71
2023/10/01 16:50:56;;;;;;;2.50;2.10;;;;;;;15.77;67.46;100475.25;214328;1294;682528;-70
2023/10/01 16:56:15;;;;;;;6.80;2.40;;;;;;;15.48;68.06;100478.25;217115;1265;140930;-70
2023/10/01 17:01:27;;;;;;;3.80;2.30;;;;;;;15.29;68.32;100488.84;216349;1259;800417;-68
2023/10/01 17:06:49;;;;;;;5.60;3.40;;;;;;;15.11;68.61;100494.22;217463;1260;139845;-71
2023/10/01 17:11:54;;;;;;;4.90;3.20;;;;;;;14.94;68.95;100497.35;217161;1260;139612;-69
2023/10/01 17:17:06;;;;;;;6.70;3.30;;;;;;;14.84;69.42;100498.96;217441;1262;223478;-69
2023/10/01 17:22:16;;;;;;;7.00;3.00;;;;;;;14.72;69.71;100501.92;217713;1259;140793;-69
2023/10/01 17:27:28;;;;;;;3.30;2.60;;;;;;;14.53;69.98;100501.65;218097;1261;139123;-70
2023/10/01 17:32:32;;;;;;;3.70;2.10;;;;;;;14.42;70.81;100503.60;217684;1260;139770;-71
2023/10/01 17:37:39;;;;;;;6.70;2.70;;;;;;;14.39;71.21;100504.32;217448;1262;141332;-70
2023/10/01 17:42:53;;;;;;;7.70;2.60;;;;;;;14.36;71.35;100501.42;218419;1260;140295;-71
2023/10/01 17:48:09;;;;;;;3.70;2.10;;;;;;;14.25;71.48;100505.96;219187;1260;139685;-80
2023/10/01 17:53:14;;;;;;;3.50;2.40;;;;;;;14.20;71.90;100507.84;218395;1263;140716;-75
2023/10/01 17:58:20;;;;;;;2.90;2.60;;;;;;;14.15;72.13;100504.85;217552;1262;139821;-74
2023/10/01 18:03:30;;;;;;;;;;;;;;;14.14;72.48;100506.48;217766;1262;140793;-70
2023/10/01 18:08:37;;;;;;;186.10;19.20;;;;;;;14.07;72.61;100508.77;217876;1262;126777;-80
2023/10/01 18:13:42;;;;;;;4.90;2.80;;;;;;;13.99;72.67;100513.38;216991;1262;141036;-70
2023/10/01 18:18:49;;;;;;;4.70;2.50;;;;;;;13.86;72.56;100521.70;217126;1261;139328;-79
2023/10/01 18:23:54;;;;;;;3.20;3.00;;;;;;;13.73;72.69;100526.67;218454;1260;139750;-76
2023/10/01 18:29:00;;;;;;;5.10;2.80;;;;;;;13.57;72.70;100533.08;217046;1262;140183;-82
2023/10/01 18:34:10;;;;;;;5.80;4.10;;;;;;;13.40;73.08;100532.41;218338;1261;139192;-80
2023/10/01 18:39:27;;;;;;;17.30;4.80;;;;;;;13.22;73.36;100535.84;217263;1262;139621;-80
2023/10/01 18:44:37;;;;;;;9.40;4.70;;;;;;;13.08;73.55;100533.31;217295;1260;139663;-81
2023/10/01 18:49:46;;;;;;;5.20;4.20;;;;;;;12.94;73.72;100536.58;217282;1261;139178;-79
2023/10/01 18:54:58;;;;;;;4.70;3.20;;;;;;;12.80;73.62;100532.27;217111;1261;140220;-74
2023/10/01 19:00:20;;;;;;;6.10;2.70;;;;;;;12.58;73.74;100527.29;218157;1261;139584;-75
2023/10/01 19:05:31;;;;;;;6.10;2.80;;;;;;;12.44;73.91;100534.14;217422;1262;140109;-76
2023/10/01 19:10:45;;;;;;;10.50;2.90;;;;;;;12.29;74.23;100532.27;217165;1262;141293;-77
2023/10/01 19:15:56;;;;;;;3.00;2.60;;;;;;;12.13;73.99;100530.48;217224;1264;139398;-79
2023/10/01 19:21:04;;;;;;;6.30;2.50;;;;;;;11.96;74.28;100530.52;217163;1261;139945;-79
2023/10/01 19:26:18;;;;;;;7.40;3.30;;;;;;;11.79;74.52;100534.25;217788;1260;140307;-77
2023/10/01 19:31:25;;;;;;;7.50;2.80;;;;;;;11.65;74.77;100534.66;217442;1262;139631;-69
2023/10/01 19:36:36;;;;;;;5.10;3.20;;;;;;;11.52;75.10;100533.13;217978;1260;139526;-78
2023/10/01 19:41:43;;;;;;;8.10;3.90;;;;;;;11.44;75.40;100535.96;217288;1261;139755;-78
2023/10/01 19:46:48;;;;;;;13.00;4.30;;;;;;;11.42;75.79;100541.20;218052;1262;140313;-79
2023/10/01 19:51:57;;;;;;;7.60;4.20;;;;;;;11.41;76.09;100544.20;218296;1262;140393;-80
2023/10/01 19:57:06;;;;;;;14.10;5.20;;;;;;;11.33;75.93;100543.23;218951;1261;140859;-76
2023/10/01 20:02:36;;;;;;;57.50;18.90;;;;;;;11.21;76.08;100538.95;217997;1262;140612;-76
2023/10/01 20:07:43;;;;;;;68.20;25.70;;;;;;;11.12;76.13;100543.16;217122;1264;139972;-70
2023/10/01 20:12:49;;;;;;;69.80;27.40;;;;;;;11.05;76.64;100546.61;217467;1261;141589;-78
2023/10/01 20:18:13;;;;;;;45.70;18.80;;;;;;;11.02;77.27;100541.59;217385;1261;142094;-77
2023/10/01 20:23:23;;;;;;;36.30;13.40;;;;;;;11.09;77.80;100538.30;217433;1264;139453;-73
2023/10/01 20:28:32;;;;;;;18.50;8.20;;;;;;;11.15;78.28;100533.20;218002;1261;140040;-76
2023/10/01 20:33:51;;;;;;;21.10;11.60;;;;;;;11.17;78.50;100531.70;218711;1261;140275;-74
2023/10/01 20:39:03;;;;;;;15.50;10.20;;;;;;;11.21;78.59;100533.98;217522;1262;141038;-75
2023/10/01 20:44:13;;;;;;;20.30;7.90;;;;;;;11.29;79.24;100537.02;217039;1263;139652;-75
2023/10/01 20:49:24;;;;;;;9.30;5.70;;;;;;;11.35;79.14;100528.73;217208;1264;139510;-76
2023/10/01 20:54:29;;;;;;;8.00;5.60;;;;;;;11.37;79.57;100528.75;217289;1263;139858;-76
2023/10/01 20:59:33;;;;;;;10.30;7.00;;;;;;;11.39;79.54;100521.71;217422;1263;139497;-76
2023/10/01 21:04:41;;;;;;;55.40;9.40;;;;;;;11.43;79.69;100525.79;217662;1263;140867;-75
2023/10/01 21:09:47;;;;;;;9.60;6.00;;;;;;;11.48;79.74;100534.61;217046;1260;140693;-72
2023/10/01 21:14:58;;;;;;;13.20;6.50;;;;;;;11.54;80.17;100539.60;217524;1264;139366;-73
2023/10/01 21:20:17;;;;;;;12.70;6.80;;;;;;;11.54;79.95;100541.79;217333;1262;139704;-75
2023/10/01 21:25:23;;;;;;;6.80;6.00;;;;;;;11.50;80.13;100543.58;217181;1264;139474;-78
2023/10/01 21:30:30;;;;;;;7.20;5.60;;;;;;;11.46;80.01;100534.63;217574;1263;140234;-76
2023/10/01 21:35:36;;;;;;;10.70;7.20;;;;;;;11.40;80.32;100534.35;217459;1264;140658;-78
2023/10/01 21:40:43;;;;;;;6.20;5.20;;;;;;;11.41;80.92;100535.34;217576;1261;140565;-77
2023/10/01 21:46:04;;;;;;;12.00;5.70;;;;;;;11.41;80.68;100530.23;218104;1264;140434;-78
2023/10/01 21:51:11;;;;;;;6.90;4.70;;;;;;;11.37;80.72;100532.98;217658;1262;140663;-78
2023/10/01 21:56:21;;;;;;;7.20;6.10;;;;;;;11.39;81.11;100537.41;217384;1264;139731;-78
2023/10/01 22:01:40;;;;;;;11.60;6.10;;;;;;;11.43;81.32;100533.09;217464;1265;141190;-77
2023/10/01 22:06:51;;;;;;;6.20;5.60;;;;;;;11.48;81.58;100527.23;217351;1262;140835;-75
2023/10/01 22:11:56;;;;;;;9.20;5.80;;;;;;;11.47;81.50;100525.98;217320;1264;139863;-69
2023/10/01 22:17:00;;;;;;;10.80;6.90;;;;;;;11.48;81.52;100524.14;217793;1262;139109;-72
2023/10/01 22:22:06;;;;;;;10.00;7.30;;;;;;;11.50;81.75;100524.08;217578;1264;140773;-79
2023/10/01 22:27:16;;;;;;;7.80;5.60;;;;;;;11.55;82.21;100530.27;217573;1263;139867;-73
2023/10/01 22:32:23;;;;;;;13.20;7.40;;;;;;;11.62;82.13;100536.02;217646;1262;139833;-74
2023/10/01 22:37:32;;;;;;;13.30;7.10;;;;;;;11.67;82.23;100532.26;217452;1263;139970;-71
2023/10/01 22:42:36;;;;;;;9.30;6.50;;;;;;;11.71;82.33;100534.11;217283;1263;140173;-73
2023/10/01 22:47:42;;;;;;;8.10;6.70;;;;;;;11.73;82.33;100528.13;217465;1261;140145;-77
2023/10/01 22:52:48;;;;;;;;;;;;;;;11.72;82.69;100532.13;217354;1263;140523;-74
2023/10/01 22:57:54;;;;;;;9.20;6.80;;;;;;;11.71;82.50;100534.69;217523;1261;126067;-75
2023/10/01 23:03:03;;;;;;;7.70;6.00;;;;;;;11.72;82.74;100539.81;217969;1261;139587;-74
2023/10/01 23:08:08;;;;;;;8.20;6.90;;;;;;;11.75;82.94;100540.29;217285;1263;159604;-74
2023/10/01 23:13:19;;;;;;;9.90;6.80;;;;;;;11.77;83.05;100531.27;217252;1262;140088;-74
2023/10/01 23:18:23;;;;;;;13.70;7.40;;;;;;;11.81;82.99;100529.14;217650;1261;140470;-77
2023/10/01 23:23:29;;;;;;;11.20;7.10;;;;;;;11.83;83.27;100532.41;217243;1261;150429;-71
2023/10/01 23:28:36;;;;;;;9.90;6.00;;;;;;;11.88;83.15;100530.80;218012;1264;141520;-75
2023/10/01 23:33:46;;;;;;;11.00;6.70;;;;;;;11.89;83.29;100527.79;217256;1263;139587;-77
2023/10/01 23:38:56;;;;;;;19.70;7.60;;;;;;;11.89;83.28;100526.18;217592;1263;141876;-73
2023/10/01 23:44:01;;;;;;;8.60;6.70;;;;;;;11.93;83.52;100524.55;217916;1264;160751;-80
2023/10/01 23:49:11;;;;;;;12.90;7.60;;;;;;;11.95;83.64;100525.89;218322;1264;140494;-77
2023/10/01 23:54:19;;;;;;;8.60;5.60;;;;;;;11.98;83.43;100520.84;217243;1261;139827;-69
2023/10/01 23:59:29;;;;;;;9.30;7.40;;;;;;;11.98;83.51;100515.83;219100;1260;142271;-78
